US-0231 weather

North Michigan Hospitals Inc Heliport
Petoskey, Michigan, United States

Public forecast

Using degrees Fahrenheit for public forecast. Weather courtesy of forecast.io.

METAR (pilot weather report)

Closest report is Harbor Springs Airport, 5.8 nm (10.7 km) NNE. Retrieved 2019/06/27 11:35 UTC (0 seconds ago):

KMGN 271135Z AUTO 00000KT 10SM CLR 18/15 A3013 RMK AO2 T01860154

TAF (pilot weather forecast)

Closest forecast is Pellston Regional Airport of Emmet County Airport, 15.8 nm (29.2 km) NNE. Retrieved 2019/06/27 06:06 UTC (5 hours ago):

TAF KPLN 270605Z 2706/2806 VRB04KT P6SM SKC FM271400 26006KT P6SM FEW250 FM280000 VRB03KT P6SM BKN250 FM280300 00000KT P6SM BKN120